createdAt,value
2022-12-18T00:02:12.996Z,14.23
2022-12-18T00:04:39.559Z,15.10
2022-12-18T00:07:06.029Z,10.68
2022-12-18T00:09:40.269Z,13.73
2022-12-18T00:14:42.821Z,14.65
2022-12-18T00:17:09.279Z,17.35
2022-12-18T00:19:36.022Z,13.98
2022-12-18T00:22:02.899Z,13.65
2022-12-18T00:24:29.344Z,14.23
2022-12-18T00:26:55.834Z,15.27
2022-12-18T00:29:22.246Z,14.63
2022-12-18T00:31:48.759Z,16.50
2022-12-18T00:34:15.390Z,10.85
2022-12-18T00:36:42.430Z,10.60
2022-12-18T00:39:10.661Z,9.23
2022-12-18T00:41:55.840Z,13.65
2022-12-18T00:44:22.402Z,7.88
2022-12-18T00:46:49.372Z,7.40
2022-12-18T00:49:18.779Z,12.45
2022-12-18T00:51:46.355Z,14.13
2022-12-18T00:54:12.832Z,12.10
2022-12-18T00:56:48.181Z,14.07
2022-12-18T00:59:16.168Z,10.77
2022-12-18T01:01:43.630Z,12.60
2022-12-18T01:04:10.523Z,13.52
2022-12-18T01:06:37.106Z,14.57
2022-12-18T01:09:04.347Z,9.80
2022-12-18T01:11:31.088Z,9.52
2022-12-18T01:14:00.550Z,10.98
2022-12-18T01:16:27.093Z,14.20
2022-12-18T01:18:55.639Z,14.43
2022-12-18T01:21:23.671Z,13.05
2022-12-18T01:23:54.967Z,12.80
2022-12-18T01:26:21.675Z,13.07
2022-12-18T01:28:48.588Z,11.63
2022-12-18T01:31:27.724Z,10.23
2022-12-18T01:33:54.910Z,12.93
2022-12-18T01:36:24.585Z,9.85
2022-12-18T01:38:51.942Z,13.18
2022-12-18T01:41:21.376Z,15.55
2022-12-18T01:43:58.328Z,14.73
2022-12-18T01:46:25.688Z,15.77
2022-12-18T01:48:57.512Z,15.80
2022-12-18T01:51:25.534Z,17.52
2022-12-18T01:53:52.176Z,16.48
2022-12-18T01:56:21.350Z,17.92
2022-12-18T01:59:02.144Z,17.45
2022-12-18T02:01:31.590Z,13.80
2022-12-18T02:04:25.589Z,14.90
2022-12-18T02:07:31.013Z,15.20
2022-12-18T02:10:31.516Z,15.38
2022-12-18T02:13:13.685Z,16.10
2022-12-18T02:16:12.695Z,12.30
2022-12-18T02:18:45.174Z,13.98
2022-12-18T02:21:42.331Z,13.05
2022-12-18T02:24:26.350Z,9.60
2022-12-18T02:26:58.550Z,11.10
2022-12-18T02:29:29.916Z,11.88
2022-12-18T02:32:00.438Z,12.07
2022-12-18T02:34:38.937Z,10.80
2022-12-18T02:37:13.258Z,10.73
2022-12-18T02:39:43.113Z,14.35
2022-12-18T02:42:10.748Z,10.98
2022-12-18T02:44:47.983Z,11.02
2022-12-18T02:47:16.477Z,12.90
2022-12-18T02:50:24.087Z,12.23
2022-12-18T02:53:09.530Z,13.38
2022-12-18T02:56:16.627Z,12.65
2022-12-18T02:59:06.916Z,13.32
2022-12-18T03:01:39.534Z,9.95
2022-12-18T03:04:13.755Z,10.13
2022-12-18T03:06:44.562Z,11.05
2022-12-18T03:09:18.867Z,11.00
2022-12-18T03:12:11.596Z,15.25
2022-12-18T03:14:39.444Z,12.20
2022-12-18T03:17:11.745Z,9.85
2022-12-18T03:19:40.227Z,10.43
2022-12-18T03:22:08.584Z,10.38
2022-12-18T03:24:39.954Z,11.80
2022-12-18T03:27:14.903Z,11.07
2022-12-18T03:29:57.876Z,10.80
2022-12-18T03:32:32.260Z,11.23
2022-12-18T03:35:04.155Z,10.40
2022-12-18T03:37:32.504Z,9.20
2022-12-18T03:39:59.182Z,8.57
2022-12-18T03:42:38.110Z,9.68
2022-12-18T03:45:14.639Z,9.65
2022-12-18T03:47:54.584Z,10.18
2022-12-18T03:50:25.403Z,10.48
2022-12-18T03:53:01.059Z,8.70
2022-12-18T03:55:30.515Z,10.32
2022-12-18T03:57:58.427Z,9.38
2022-12-18T04:00:24.968Z,10.75
2022-12-18T04:02:55.099Z,9.48
2022-12-18T04:05:23.572Z,12.82
2022-12-18T04:07:52.989Z,10.00
2022-12-18T04:10:19.887Z,8.95
2022-12-18T04:12:46.305Z,7.85
2022-12-18T04:15:14.120Z,7.35
2022-12-18T04:17:48.025Z,7.60
2022-12-18T04:20:14.684Z,9.77
2022-12-18T04:22:41.158Z,10.07
2022-12-18T04:25:08.089Z,12.50
2022-12-18T04:27:35.080Z,15.05
2022-12-18T04:30:02.017Z,10.00
2022-12-18T04:32:28.473Z,9.18
2022-12-18T04:34:55.019Z,11.35
2022-12-18T04:37:21.677Z,11.77
2022-12-18T04:39:48.296Z,16.38
2022-12-18T04:42:14.783Z,10.60
2022-12-18T04:44:41.381Z,16.48
2022-12-18T04:47:08.536Z,14.57
2022-12-18T04:49:34.969Z,9.90
2022-12-18T04:52:01.540Z,10.57
2022-12-18T04:54:27.957Z,17.20
2022-12-18T04:56:54.464Z,15.25
2022-12-18T04:59:21.801Z,9.98
2022-12-18T05:01:48.652Z,12.93
2022-12-18T05:04:15.306Z,9.07
2022-12-18T05:06:41.947Z,7.57
2022-12-18T05:09:08.464Z,9.98
2022-12-18T05:11:36.324Z,11.40
2022-12-18T05:14:02.872Z,9.52
2022-12-18T05:16:29.529Z,11.00
2022-12-18T05:18:56.088Z,10.90
2022-12-18T05:21:22.521Z,12.40
2022-12-18T05:23:48.967Z,12.50
2022-12-18T05:26:18.458Z,11.10
2022-12-18T05:28:45.474Z,8.30
2022-12-18T05:31:12.331Z,9.35
2022-12-18T05:33:39.518Z,10.57
2022-12-18T05:36:08.795Z,8.80
2022-12-18T05:38:37.722Z,10.23
2022-12-18T05:41:05.524Z,9.07
2022-12-18T05:43:32.572Z,10.63
2022-12-18T05:45:59.130Z,11.48
2022-12-18T05:48:25.967Z,10.00
2022-12-18T05:50:52.461Z,10.07
2022-12-18T05:53:21.551Z,9.25
2022-12-18T05:55:48.540Z,10.10
2022-12-18T05:58:15.617Z,9.45
2022-12-18T06:00:46.716Z,9.00
2022-12-18T06:03:14.904Z,8.23
2022-12-18T06:05:44.694Z,7.53
2022-12-18T06:08:12.611Z,7.38
2022-12-18T06:10:39.599Z,10.18
2022-12-18T06:13:07.005Z,8.00
2022-12-18T06:15:33.971Z,9.00
2022-12-18T06:18:02.119Z,10.27
2022-12-18T06:20:33.248Z,13.48
2022-12-18T06:23:00.304Z,12.85
2022-12-18T06:25:27.296Z,10.15
2022-12-18T06:27:53.832Z,14.10
2022-12-18T06:30:20.292Z,10.18
2022-12-18T06:32:50.494Z,9.95
2022-12-18T06:35:19.532Z,10.90
2022-12-18T06:37:47.624Z,9.90
2022-12-18T06:40:14.136Z,8.45
2022-12-18T06:42:40.739Z,10.85
2022-12-18T06:45:07.688Z,11.93
2022-12-18T06:47:34.193Z,10.15
2022-12-18T06:50:00.664Z,11.38
2022-12-18T06:52:27.096Z,12.38
2022-12-18T06:54:53.748Z,10.45
2022-12-18T06:57:20.234Z,13.48
2022-12-18T06:59:46.741Z,11.40
2022-12-18T07:02:13.943Z,14.70
2022-12-18T07:04:40.994Z,12.68
2022-12-18T07:07:07.523Z,15.48
2022-12-18T07:09:34.117Z,16.33
2022-12-18T07:12:00.585Z,14.65
2022-12-18T07:14:27.048Z,11.93
2022-12-18T07:16:53.737Z,10.98
2022-12-18T07:19:20.419Z,11.18
2022-12-18T07:21:47.085Z,11.68
2022-12-18T07:24:13.549Z,11.75
2022-12-18T07:26:39.984Z,11.27
2022-12-18T07:29:06.453Z,9.85
2022-12-18T07:31:32.961Z,9.05
2022-12-18T07:33:59.547Z,16.27
2022-12-18T07:36:26.413Z,12.40
2022-12-18T07:38:56.159Z,11.80
2022-12-18T07:41:22.749Z,9.00
2022-12-18T07:43:49.731Z,9.98
2022-12-18T07:46:17.732Z,15.45
2022-12-18T07:48:45.217Z,11.63
2022-12-18T07:51:16.385Z,9.45
2022-12-18T07:53:43.593Z,14.50
2022-12-18T07:56:29.091Z,13.55
2022-12-18T07:58:58.593Z,13.15
2022-12-18T08:01:25.537Z,15.25
2022-12-18T08:03:52.726Z,14.73
2022-12-18T08:06:23.245Z,13.43
2022-12-18T08:08:56.042Z,11.93
2022-12-18T08:11:24.399Z,16.83
2022-12-18T08:13:51.047Z,13.73
2022-12-18T08:16:18.504Z,14.43
2022-12-18T08:18:45.779Z,13.25
2022-12-18T08:21:14.811Z,16.27
2022-12-18T08:23:43.353Z,12.60
2022-12-18T08:26:11.402Z,11.65
2022-12-18T08:28:38.080Z,19.73
2022-12-18T08:31:04.993Z,16.10
2022-12-18T08:33:32.049Z,14.68
2022-12-18T08:36:00.022Z,13.25
2022-12-18T08:38:26.486Z,15.15
2022-12-18T08:41:19.510Z,15.48
2022-12-18T08:44:04.511Z,15.00
2022-12-18T08:46:42.240Z,15.82
2022-12-18T08:49:09.784Z,14.85
2022-12-18T08:51:36.863Z,14.13
2022-12-18T08:54:03.938Z,15.15
2022-12-18T08:56:33.016Z,20.13
2022-12-18T08:58:59.693Z,17.50
2022-12-18T09:01:26.407Z,14.88
2022-12-18T09:03:53.199Z,17.60
2022-12-18T09:06:21.716Z,15.52
2022-12-18T09:08:48.429Z,12.82
2022-12-18T09:11:24.481Z,13.73
2022-12-18T09:13:51.387Z,21.00
2022-12-18T09:16:18.281Z,20.73
2022-12-18T09:18:44.819Z,14.75
2022-12-18T09:21:19.751Z,17.42
2022-12-18T09:23:56.715Z,15.68
2022-12-18T09:26:24.406Z,19.63
2022-12-18T09:28:51.924Z,16.98
2022-12-18T09:31:20.535Z,20.10
2022-12-18T09:33:47.321Z,16.15
2022-12-18T09:36:16.709Z,16.67
2022-12-18T09:38:43.529Z,16.55
2022-12-18T09:41:19.284Z,17.40
2022-12-18T09:46:26.487Z,16.55
2022-12-18T09:48:55.718Z,17.85
2022-12-18T09:51:37.572Z,18.83
2022-12-18T09:54:39.358Z,18.85
2022-12-18T09:57:06.530Z,20.02
2022-12-18T09:59:37.599Z,19.40
2022-12-18T10:02:33.806Z,19.27
2022-12-18T10:05:15.410Z,20.27
2022-12-18T10:07:51.070Z,26.48
2022-12-18T10:10:22.416Z,19.90
2022-12-18T10:13:24.118Z,21.30
2022-12-18T10:16:14.306Z,18.10
2022-12-18T10:19:21.168Z,18.13
2022-12-18T10:22:06.441Z,21.40
2022-12-18T10:24:44.550Z,16.42
2022-12-18T10:27:25.110Z,19.63
2022-12-18T10:29:51.876Z,16.70
2022-12-18T10:32:21.643Z,19.85
2022-12-18T10:34:49.574Z,21.08
2022-12-18T10:37:21.735Z,21.08
2022-12-18T10:40:08.121Z,23.98
2022-12-18T10:42:34.734Z,17.90
2022-12-18T10:45:16.977Z,22.38
2022-12-18T10:47:47.432Z,20.20
2022-12-18T10:50:40.723Z,22.25
2022-12-18T10:53:20.963Z,21.25
2022-12-18T10:55:48.348Z,20.58
2022-12-18T10:58:38.111Z,22.20
2022-12-18T11:01:12.244Z,19.88
2022-12-18T11:03:42.899Z,22.23
2022-12-18T11:06:12.075Z,17.65
2022-12-18T11:08:39.820Z,20.67
2022-12-18T11:11:17.342Z,21.40
2022-12-18T11:14:06.329Z,18.70
2022-12-18T11:16:57.929Z,18.13
2022-12-18T11:19:34.931Z,16.60
2022-12-18T11:22:04.516Z,22.98
2022-12-18T11:24:36.383Z,21.60
2022-12-18T11:27:05.616Z,23.42
2022-12-18T11:29:46.249Z,21.95
2022-12-18T11:32:16.160Z,22.45
2022-12-18T11:34:47.428Z,23.33
2022-12-18T11:37:16.724Z,23.67
2022-12-18T11:39:53.986Z,18.27
2022-12-18T11:42:37.011Z,23.45
2022-12-18T11:45:13.902Z,22.35
2022-12-18T11:47:50.008Z,22.10
2022-12-18T11:50:24.968Z,23.45
2022-12-18T11:52:56.721Z,19.33
2022-12-18T11:55:40.824Z,14.52
2022-12-18T11:58:42.884Z,12.95
2022-12-18T12:01:24.423Z,12.82
2022-12-18T12:04:15.569Z,25.92
2022-12-18T12:07:04.833Z,22.73
2022-12-18T12:09:49.624Z,19.70
2022-12-18T12:12:49.124Z,21.58
2022-12-18T12:15:33.265Z,24.15
2022-12-18T12:18:19.489Z,18.85
2022-12-18T12:21:11.096Z,13.57
2022-12-18T12:23:43.609Z,21.42
2022-12-18T12:26:22.060Z,22.60
2022-12-18T12:28:54.540Z,23.45
2022-12-18T12:31:24.039Z,23.20
2022-12-18T12:34:15.531Z,23.50
2022-12-18T12:37:20.302Z,20.95
2022-12-18T12:39:48.567Z,23.95
2022-12-18T12:42:43.647Z,23.88
2022-12-18T12:45:19.533Z,25.25
2022-12-18T12:47:49.433Z,27.33
2022-12-18T12:50:21.212Z,26.05
2022-12-18T12:52:53.546Z,19.92
2022-12-18T12:55:27.568Z,21.85
2022-12-18T12:58:06.323Z,25.45
2022-12-18T13:00:45.184Z,25.95
2022-12-18T13:03:42.426Z,26.17
2022-12-18T13:06:36.930Z,19.02
2022-12-18T13:09:06.189Z,15.48
2022-12-18T13:12:00.428Z,13.65
2022-12-18T13:14:36.659Z,22.35
2022-12-18T13:17:21.193Z,27.88
2022-12-18T13:20:08.980Z,26.88
2022-12-18T13:22:39.079Z,24.33
2022-12-18T13:25:35.274Z,17.75
2022-12-18T13:28:12.212Z,16.23
2022-12-18T13:30:41.870Z,21.05
2022-12-18T13:33:15.160Z,25.00
2022-12-18T13:36:03.712Z,15.98
2022-12-18T13:38:32.892Z,23.38
2022-12-18T13:41:01.037Z,21.27
2022-12-18T13:43:59.140Z,19.88
2022-12-18T13:46:42.843Z,20.60
2022-12-18T13:49:15.493Z,18.40
2022-12-18T13:51:50.457Z,23.40
2022-12-18T13:54:42.229Z,17.50
2022-12-18T13:57:31.818Z,23.17
2022-12-18T13:59:59.089Z,17.15
2022-12-18T14:02:28.289Z,16.17
2022-12-18T14:04:56.438Z,13.93
2022-12-18T14:07:26.244Z,13.13
2022-12-18T14:10:06.483Z,14.80
2022-12-18T14:12:57.506Z,15.52
2022-12-18T14:15:27.045Z,14.45
2022-12-18T14:18:00.124Z,13.68
2022-12-18T14:20:29.502Z,12.88
2022-12-18T14:22:57.761Z,15.27
2022-12-18T14:25:27.483Z,16.95
2022-12-18T14:28:08.809Z,14.95
2022-12-18T14:30:41.264Z,16.20
2022-12-18T14:33:19.738Z,18.63
2022-12-18T14:36:06.034Z,16.05
2022-12-18T14:38:37.637Z,17.38
2022-12-18T14:41:11.459Z,16.20
2022-12-18T14:43:41.038Z,16.80
2022-12-18T14:46:34.134Z,25.40
2022-12-18T14:49:04.033Z,17.00
2022-12-18T14:51:33.739Z,19.05
2022-12-18T14:54:08.888Z,16.48
2022-12-18T14:56:37.926Z,17.42
2022-12-18T14:59:07.480Z,15.57
2022-12-18T15:01:40.479Z,14.50
2022-12-18T15:04:28.447Z,13.65
2022-12-18T15:07:14.607Z,18.45
2022-12-18T15:09:45.415Z,17.67
2022-12-18T15:12:29.720Z,20.00
2022-12-18T15:14:56.396Z,16.30
2022-12-18T15:17:24.698Z,15.05
2022-12-18T15:20:02.206Z,13.77
2022-12-18T15:22:48.329Z,15.98
2022-12-18T15:25:37.605Z,16.45
2022-12-18T15:28:05.025Z,16.13
2022-12-18T15:30:32.455Z,15.65
2022-12-18T15:33:25.740Z,15.27
2022-12-18T15:36:04.154Z,16.00
2022-12-18T15:38:31.120Z,16.60
2022-12-18T15:40:57.926Z,15.05
2022-12-18T15:43:37.934Z,17.48
2022-12-18T15:46:13.248Z,17.52
2022-12-18T15:48:45.279Z,16.42
2022-12-18T15:51:17.128Z,15.57
2022-12-18T15:53:44.489Z,13.60
2022-12-18T15:56:34.275Z,13.40
2022-12-18T15:59:02.144Z,13.77
2022-12-18T16:01:31.149Z,12.90
2022-12-18T16:03:57.922Z,14.50
2022-12-18T16:06:24.734Z,20.88
2022-12-18T16:08:51.459Z,20.00
2022-12-18T16:11:38.980Z,17.27
2022-12-18T16:14:15.910Z,17.45
2022-12-18T16:16:42.766Z,13.57
2022-12-18T16:19:09.246Z,15.20
2022-12-18T16:21:36.283Z,17.13
2022-12-18T16:24:03.001Z,16.80
2022-12-18T16:26:29.512Z,14.00
2022-12-18T16:28:55.925Z,31.98
2022-12-18T16:31:22.754Z,25.80
2022-12-18T16:33:49.576Z,21.02
2022-12-18T16:36:16.073Z,30.30
2022-12-18T16:38:42.942Z,40.00
2022-12-18T16:41:32.314Z,29.35
2022-12-18T16:44:02.506Z,30.40
2022-12-18T16:46:29.263Z,34.00
2022-12-18T16:48:58.255Z,28.50
2022-12-18T16:51:24.765Z,20.25
2022-12-18T16:53:51.276Z,19.33
2022-12-18T16:56:17.737Z,24.83
2022-12-18T16:58:44.357Z,30.27
2022-12-18T17:01:12.169Z,32.75
2022-12-18T17:03:40.314Z,25.55
2022-12-18T17:06:07.396Z,23.45
2022-12-18T17:08:33.871Z,33.47
2022-12-18T17:11:09.546Z,26.08
2022-12-18T17:13:36.138Z,25.90
2022-12-18T17:16:07.732Z,20.48
2022-12-18T17:18:35.130Z,18.73
2022-12-18T17:21:03.248Z,27.00
2022-12-18T17:23:30.428Z,28.85
2022-12-18T17:25:58.325Z,25.80
2022-12-18T17:28:26.161Z,22.60
2022-12-18T17:30:53.963Z,23.73
2022-12-18T17:33:21.154Z,23.75
2022-12-18T17:35:47.745Z,27.92
2022-12-18T17:38:15.043Z,22.27
2022-12-18T17:40:46.059Z,28.50
2022-12-18T17:43:13.171Z,18.73
2022-12-18T17:45:40.372Z,17.35
2022-12-18T17:48:08.310Z,25.58
2022-12-18T17:50:35.772Z,33.13
2022-12-18T17:53:02.854Z,30.75
2022-12-18T17:55:29.933Z,20.88
2022-12-18T17:57:56.411Z,19.27
2022-12-18T18:00:23.067Z,20.65
2022-12-18T18:02:49.779Z,18.20
2022-12-18T18:05:16.500Z,18.00
2022-12-18T18:07:42.962Z,20.38
2022-12-18T18:10:09.774Z,32.40
2022-12-18T18:16:22.640Z,24.00
2022-12-18T18:18:49.087Z,24.42
2022-12-18T18:21:15.540Z,30.15
2022-12-18T18:23:42.475Z,27.15
2022-12-18T18:26:11.032Z,22.83
2022-12-18T18:28:37.470Z,20.92
2022-12-18T18:31:06.147Z,18.15
2022-12-18T18:33:33.643Z,26.50
2022-12-18T18:36:00.355Z,32.65
2022-12-18T18:38:29.135Z,22.73
2022-12-18T18:43:30.379Z,20.55
2022-12-18T18:46:01.245Z,19.15
2022-12-18T18:48:30.966Z,32.58
2022-12-18T18:51:00.799Z,24.65
2022-12-18T18:53:28.437Z,22.98
2022-12-18T18:56:34.536Z,23.65
2022-12-18T18:58:45.704Z,21.63
2022-12-18T19:01:17.501Z,37.05
2022-12-18T19:03:44.930Z,27.63
2022-12-18T19:06:14.896Z,33.05
2022-12-18T19:08:42.054Z,30.98
2022-12-18T19:11:31.807Z,37.50
2022-12-18T19:14:08.044Z,36.30
2022-12-18T19:16:35.493Z,37.10
2022-12-18T19:19:03.514Z,38.33
2022-12-18T19:21:31.406Z,28.13
2022-12-18T19:24:00.809Z,40.70
2022-12-18T19:26:28.506Z,28.15
2022-12-18T19:29:01.532Z,36.42
2022-12-18T19:31:33.362Z,28.88
2022-12-18T19:34:02.333Z,32.13
2022-12-18T19:36:30.909Z,23.13
2022-12-18T19:39:00.347Z,20.08
2022-12-18T19:41:31.295Z,22.80
2022-12-18T19:44:07.345Z,27.08
2022-12-18T19:46:36.054Z,20.50
2022-12-18T19:51:32.049Z,18.67
2022-12-18T19:54:01.388Z,22.80
2022-12-18T19:56:31.007Z,18.63
2022-12-18T19:58:58.307Z,20.20
2022-12-18T20:01:25.784Z,19.35
2022-12-18T20:03:53.744Z,19.90
2022-12-18T20:06:34.267Z,20.13
2022-12-18T20:09:04.786Z,20.48
2022-12-18T20:11:33.357Z,27.63
2022-12-18T20:14:04.411Z,33.78
2022-12-18T20:16:33.087Z,33.72
2022-12-18T20:19:00.246Z,28.10
2022-12-18T20:21:26.967Z,29.77
2022-12-18T20:23:54.824Z,32.67
2022-12-18T20:26:22.403Z,24.02
2022-12-18T20:28:48.877Z,28.92
2022-12-18T20:31:15.490Z,29.65
2022-12-18T20:33:42.717Z,22.55
2022-12-18T20:36:15.380Z,27.77
2022-12-18T20:38:43.444Z,28.98
2022-12-18T20:41:16.350Z,27.77
2022-12-18T20:43:44.113Z,24.85
2022-12-18T20:46:13.169Z,24.55
2022-12-18T20:51:13.297Z,19.38
2022-12-18T20:53:41.809Z,20.85
2022-12-18T20:56:21.517Z,20.73
2022-12-18T20:58:49.497Z,16.27
2022-12-18T21:01:21.626Z,35.97
2022-12-18T21:03:48.988Z,17.80
2022-12-18T21:06:17.941Z,19.25
2022-12-18T21:08:44.832Z,23.30
2022-12-18T21:11:39.213Z,29.67
2022-12-18T21:14:10.053Z,30.02
2022-12-18T21:16:36.807Z,24.20
2022-12-18T21:19:04.684Z,29.27
2022-12-18T21:21:37.224Z,25.40
2022-12-18T21:24:06.136Z,27.15
2022-12-18T21:26:32.711Z,32.15
2022-12-18T21:29:01.647Z,23.67
2022-12-18T21:31:36.454Z,26.55
2022-12-18T21:34:03.909Z,29.23
2022-12-18T21:36:31.795Z,22.55
2022-12-18T21:38:59.134Z,21.75
2022-12-18T21:41:44.879Z,27.83
2022-12-18T21:44:14.541Z,27.05
2022-12-18T21:46:44.036Z,27.02
2022-12-18T21:49:11.990Z,28.40
2022-12-18T21:51:39.433Z,21.70
2022-12-18T21:54:06.062Z,31.58
2022-12-18T21:56:52.283Z,29.70
2022-12-18T21:59:20.217Z,31.77
2022-12-18T22:01:48.137Z,25.02
2022-12-18T22:04:16.154Z,20.77
2022-12-18T22:06:43.334Z,18.92
2022-12-18T22:09:12.488Z,15.95
2022-12-18T22:11:39.560Z,15.70
2022-12-18T22:14:06.637Z,13.20
2022-12-18T22:16:33.530Z,17.90
2022-12-18T22:19:01.936Z,18.83
2022-12-18T22:21:31.249Z,17.25
2022-12-18T22:24:03.635Z,17.27
2022-12-18T22:26:36.499Z,21.95
2022-12-18T22:29:25.322Z,30.08
2022-12-18T22:31:52.471Z,20.38
2022-12-18T22:34:22.812Z,25.00
2022-12-18T22:36:49.763Z,22.65
2022-12-18T22:39:24.514Z,19.05
2022-12-18T22:41:51.837Z,17.27
2022-12-18T22:44:18.840Z,18.25
2022-12-18T22:47:05.646Z,18.77
2022-12-18T22:49:33.895Z,20.17
2022-12-18T22:52:01.545Z,21.85
2022-12-18T22:54:28.168Z,27.00
2022-12-18T22:56:55.500Z,27.58
2022-12-18T22:59:23.358Z,29.98
2022-12-18T23:01:51.442Z,23.67
2022-12-18T23:04:28.469Z,30.02
2022-12-18T23:07:02.676Z,26.63
2022-12-18T23:09:29.286Z,29.65
2022-12-18T23:11:55.796Z,25.25
2022-12-18T23:14:22.322Z,29.30
2022-12-18T23:16:49.240Z,26.10
2022-12-18T23:19:17.912Z,25.95
2022-12-18T23:21:44.378Z,23.48
2022-12-18T23:24:10.959Z,21.52
2022-12-18T23:26:37.625Z,27.50
2022-12-18T23:29:04.665Z,26.73
2022-12-18T23:31:36.331Z,26.38
2022-12-18T23:34:05.058Z,26.00
2022-12-18T23:39:15.415Z,23.80
2022-12-18T23:41:55.929Z,30.33
2022-12-18T23:44:22.391Z,30.77
2022-12-18T23:46:48.933Z,25.98
2022-12-18T23:49:15.456Z,22.55
2022-12-18T23:51:42.169Z,22.38
2022-12-18T23:54:09.991Z,19.83
2022-12-18T23:56:36.478Z,27.65
2022-12-18T23:59:02.927Z,26.80
